Time;durP1;ratioP1;P1;durP2;ratioP2;P2;SDS_P1;SDS_P2;PMS_P1;PMS_P2;Temp;Humidity;BMP_temperature;BMP_pressure;BME280_temperature;BME280_humidity;BME280_pressure;Samples;Min_cycle;Max_cycle;Signal;HPM_P1;HPM_P2
2021/12/31 00:00:11;;;;;;;59.72;34.47;;;8.20;99.90;;;;;;4861418;29;20030;-74
2021/12/31 00:02:37;;;;;;;70.50;39.88;;;8.10;99.90;;;;;;4861631;29;20540;-72
2021/12/31 00:05:04;;;;;;;65.40;41.25;;;8.10;99.90;;;;;;4861421;29;20033;-74
2021/12/31 00:07:30;;;;;;;66.53;40.33;;;8.10;99.90;;;;;;4861460;29;20494;-74
2021/12/31 00:10:00;;;;;;;68.90;39.60;;;8.10;99.90;;;;;;4844700;29;20060;-73
2021/12/31 00:12:26;;;;;;;59.92;38.45;;;8.10;99.90;;;;;;4861396;29;20094;-74
2021/12/31 00:14:52;;;;;;;64.30;39.33;;;8.10;99.90;;;;;;4860766;29;20037;-74
2021/12/31 00:17:17;;;;;;;59.85;37.25;;;8.10;99.90;;;;;;4861422;29;20073;-72
2021/12/31 00:19:45;;;;;;;59.78;36.75;;;8.00;99.90;;;;;;4861785;29;20046;-72
2021/12/31 00:24:57;;;;;;;60.00;32.75;;;8.00;99.90;;;;;;4861510;29;20083;-71
2021/12/31 00:27:22;;;;;;;58.15;35.13;;;8.00;99.90;;;;;;4861409;29;20036;-74
2021/12/31 00:29:48;;;;;;;51.28;32.35;;;8.00;99.90;;;;;;4861134;29;20379;-72
2021/12/31 00:32:14;;;;;;;46.70;30.05;;;8.00;99.90;;;;;;4844661;29;20144;-74
2021/12/31 00:34:39;;;;;;;46.45;29.60;;;8.00;99.90;;;;;;4844945;29;20033;-74
2021/12/31 00:37:05;;;;;;;48.85;29.48;;;8.00;99.90;;;;;;4860948;29;20037;-73
2021/12/31 00:39:31;;;;;;;51.33;30.50;;;7.90;99.90;;;;;;4861202;29;20078;-73
2021/12/31 00:41:57;;;;;;;43.25;28.85;;;7.90;99.90;;;;;;4861078;29;20062;-74
2021/12/31 00:44:31;;;;;;;44.00;28.00;;;7.90;99.90;;;;;;5089873;28;20385;-75
2021/12/31 00:46:57;;;;;;;42.47;26.98;;;7.90;99.90;;;;;;5089891;28;20562;-74
2021/12/31 00:49:22;;;;;;;42.05;27.50;;;7.90;99.90;;;;;;5089900;28;20035;-73
2021/12/31 00:51:48;;;;;;;42.88;26.02;;;7.80;99.90;;;;;;5090074;28;20099;-74
2021/12/31 00:54:13;;;;;;;38.33;24.33;;;7.80;99.90;;;;;;5089959;28;20020;-76
2021/12/31 00:56:39;;;;;;;43.42;27.35;;;7.80;99.90;;;;;;5089709;28;20392;-74
2021/12/31 00:59:05;;;;;;;42.20;26.80;;;7.80;99.90;;;;;;5089987;28;20078;-72
2021/12/31 01:01:34;;;;;;;46.92;28.95;;;7.90;99.90;;;;;;5089565;28;20024;-73
2021/12/31 01:03:59;;;;;;;53.75;31.40;;;7.90;99.90;;;;;;5089378;28;20044;-74
2021/12/31 01:06:25;;;;;;;51.85;33.20;;;7.90;99.90;;;;;;5089607;28;20021;-74
2021/12/31 01:08:51;;;;;;;49.33;31.25;;;8.00;99.90;;;;;;5089989;28;20036;-73
2021/12/31 01:11:16;;;;;;;53.95;32.53;;;8.00;99.90;;;;;;5089924;28;20047;-74
2021/12/31 01:13:59;;;;;;;49.33;29.55;;;8.10;99.90;;;;;;5089524;28;20024;-74
2021/12/31 01:16:35;;;;;;;47.80;31.73;;;8.10;99.90;;;;;;5089444;28;20480;-73
2021/12/31 01:21:27;;;;;;;52.35;31.40;;;8.00;99.90;;;;;;5089404;28;20384;-73
2021/12/31 01:23:57;;;;;;;56.70;35.17;;;8.00;99.90;;;;;;5089215;28;20036;-73
2021/12/31 01:26:23;;;;;;;55.65;34.83;;;8.00;99.90;;;;;;5089410;28;20028;-73
2021/12/31 01:28:49;;;;;;;62.38;35.42;;;7.90;99.90;;;;;;5089275;28;20024;-72
2021/12/31 01:31:14;;;;;;;61.28;35.70;;;7.90;99.90;;;;;;5089163;28;20020;-73
2021/12/31 01:33:40;;;;;;;67.72;37.85;;;7.90;99.90;;;;;;5087776;28;20027;-74
2021/12/31 01:36:06;;;;;;;70.03;38.67;;;7.90;99.90;;;;;;5089045;28;20025;-74
2021/12/31 01:38:32;;;;;;;62.17;37.22;;;7.90;99.90;;;;;;5087746;28;20017;-75
2021/12/31 01:40:57;;;;;;;70.30;37.45;;;7.80;99.90;;;;;;5088234;28;20029;-75
2021/12/31 01:43:23;;;;;;;70.15;37.42;;;7.80;99.90;;;;;;5088628;28;20408;-74
2021/12/31 01:45:55;;;;;;;105.03;46.88;;;7.70;99.90;;;;;;5088651;28;20381;-74
2021/12/31 01:48:33;;;;;;;99.82;44.45;;;7.70;99.90;;;;;;5088710;28;20031;-74
2021/12/31 01:50:59;;;;;;;91.78;44.88;;;7.70;99.90;;;;;;5089065;28;20016;-74
2021/12/31 01:53:26;;;;;;;95.93;44.90;;;7.70;99.90;;;;;;5088846;28;20039;-74
2021/12/31 01:55:56;;;;;;;97.32;46.20;;;7.80;99.90;;;;;;5075058;28;20385;-74
2021/12/31 01:58:24;;;;;;;117.82;48.53;;;7.80;99.90;;;;;;5075145;28;20029;-75
2021/12/31 02:00:50;;;;;;;108.80;48.25;;;7.80;99.90;;;;;;5074910;28;20491;-74
2021/12/31 02:03:18;;;;;;;124.35;52.13;;;7.80;99.90;;;;;;5074047;28;20064;-74
2021/12/31 02:05:44;;;;;;;212.55;53.05;;;7.80;99.90;;;;;;5073947;28;20389;-74
2021/12/31 02:08:10;;;;;;;171.57;54.17;;;7.70;99.90;;;;;;5075383;28;20035;-74
2021/12/31 02:10:36;;;;;;;171.52;55.47;;;7.70;99.90;;;;;;5075104;28;20099;-74
2021/12/31 02:13:02;;;;;;;276.98;54.92;;;7.60;99.90;;;;;;5074867;28;20029;-74
2021/12/31 02:15:30;;;;;;;160.88;56.72;;;7.60;99.90;;;;;;5075250;28;20021;-74
2021/12/31 02:17:57;;;;;;;162.85;56.38;;;7.60;99.90;;;;;;5075324;28;20036;-74
2021/12/31 02:20:34;;;;;;;274.70;58.45;;;7.60;99.90;;;;;;5074780;28;20070;-75
2021/12/31 02:23:06;;;;;;;137.40;55.00;;;7.60;99.90;;;;;;5075021;28;20028;-74
2021/12/31 02:25:35;;;;;;;197.38;57.60;;;7.60;99.90;;;;;;5074686;28;20071;-75
2021/12/31 02:28:01;;;;;;;122.15;57.03;;;7.60;99.90;;;;;;5074864;28;20030;-74
2021/12/31 02:30:28;;;;;;;155.10;57.13;;;7.60;99.90;;;;;;5074948;28;20033;-73
2021/12/31 02:32:54;;;;;;;145.45;56.28;;;7.60;99.90;;;;;;5073454;28;20469;-75
2021/12/31 02:35:19;;;;;;;146.25;57.90;;;7.60;99.90;;;;;;5059522;28;20100;-71
2021/12/31 02:37:45;;;;;;;261.65;58.55;;;7.60;99.90;;;;;;5054511;28;20017;-74
2021/12/31 02:40:14;;;;;;;372.83;62.63;;;7.60;99.90;;;;;;5054325;28;20389;-74
2021/12/31 02:42:41;;;;;;;194.27;60.60;;;7.50;99.90;;;;;;5054217;28;20384;-74
2021/12/31 02:45:08;;;;;;;225.65;65.22;;;7.50;99.90;;;;;;5052968;28;20050;-74
2021/12/31 02:47:35;;;;;;;166.43;59.80;;;7.50;99.90;;;;;;5054514;28;20027;-75
2021/12/31 02:50:04;;;;;;;209.90;62.08;;;7.40;99.90;;;;;;5054457;28;20021;-75
2021/12/31 02:52:29;;;;;;;237.35;57.38;;;7.40;99.90;;;;;;5054608;28;20027;-73
2021/12/31 02:54:57;;;;;;;322.05;64.03;;;7.40;99.90;;;;;;5054291;28;20033;-73
2021/12/31 02:57:23;;;;;;;261.80;60.40;;;7.40;99.90;;;;;;5053142;28;20039;-74
2021/12/31 02:59:49;;;;;;;210.45;57.45;;;7.30;99.90;;;;;;5054144;28;20029;-73
2021/12/31 03:02:21;;;;;;;331.67;60.75;;;7.30;99.90;;;;;;5053856;28;20028;-74
2021/12/31 03:04:48;;;;;;;;;;;7.40;99.90;;;;;;5053772;28;20044;-74
2021/12/31 03:07:14;;;;;;;169.93;52.95;;;7.40;99.90;;;;;;5050947;28;19909;-74
2021/12/31 03:09:45;;;;;;;336.30;59.00;;;7.30;99.90;;;;;;5055820;28;20024;-73
2021/12/31 03:12:12;;;;;;;143.95;57.15;;;7.30;99.90;;;;;;5056262;28;20099;-74
2021/12/31 03:14:39;;;;;;;126.85;55.28;;;7.30;99.90;;;;;;5053745;28;20017;-74
2021/12/31 03:17:06;;;;;;;140.15;58.47;;;7.30;99.90;;;;;;5053792;28;20139;-74
2021/12/31 03:19:32;;;;;;;150.95;57.92;;;7.30;99.90;;;;;;5053875;28;20021;-74
2021/12/31 03:21:57;;;;;;;138.70;54.80;;;7.40;99.90;;;;;;5053709;28;20484;-74
2021/12/31 03:24:23;;;;;;;455.48;60.80;;;7.40;99.90;;;;;;5053411;28;20033;-74
2021/12/31 03:26:49;;;;;;;132.63;52.83;;;7.40;99.90;;;;;;5053770;28;20032;-74
2021/12/31 03:29:14;;;;;;;137.75;52.97;;;7.40;99.90;;;;;;5052950;28;20064;-75
2021/12/31 03:31:40;;;;;;;159.13;53.10;;;7.40;99.90;;;;;;5061459;28;20424;-75
2021/12/31 03:34:06;;;;;;;270.70;49.88;;;7.40;99.90;;;;;;5059530;28;20021;-74
2021/12/31 03:36:31;;;;;;;294.27;54.03;;;7.20;99.90;;;;;;5053246;28;20060;-74
2021/12/31 03:38:57;;;;;;;160.40;49.90;;;7.10;99.90;;;;;;5053029;28;20446;-73
2021/12/31 03:41:23;;;;;;;135.07;50.30;;;7.00;99.90;;;;;;5053069;28;20036;-75
2021/12/31 03:43:48;;;;;;;187.80;50.30;;;7.00;99.90;;;;;;5052900;28;20144;-75
2021/12/31 03:46:14;;;;;;;128.18;49.10;;;7.00;99.90;;;;;;5051933;28;20029;-75
2021/12/31 03:48:40;;;;;;;180.65;46.85;;;7.00;99.90;;;;;;5051661;28;20036;-75
2021/12/31 03:51:06;;;;;;;297.77;50.38;;;7.00;99.90;;;;;;5053265;28;20079;-75
2021/12/31 03:53:32;;;;;;;143.40;46.72;;;6.90;99.90;;;;;;5053104;28;20389;-74
2021/12/31 03:55:57;;;;;;;239.07;51.65;;;6.90;99.90;;;;;;5052952;28;20025;-75
2021/12/31 03:58:23;;;;;;;129.38;51.00;;;6.90;99.90;;;;;;5052008;28;20032;-75
2021/12/31 04:00:49;;;;;;;168.10;50.10;;;7.00;99.90;;;;;;5052983;28;20068;-75
2021/12/31 04:03:14;;;;;;;212.00;49.38;;;7.00;99.90;;;;;;5052623;28;20568;-75
2021/12/31 04:05:41;;;;;;;115.13;48.55;;;7.00;99.90;;;;;;5052455;28;20025;-74
2021/12/31 04:08:08;;;;;;;137.70;48.13;;;7.00;99.90;;;;;;5051812;28;20031;-74
2021/12/31 04:10:34;;;;;;;118.20;48.95;;;7.10;99.90;;;;;;5052930;28;20029;-75
2021/12/31 04:12:59;;;;;;;249.80;51.60;;;7.10;99.90;;;;;;5052867;28;20036;-74
2021/12/31 04:15:25;;;;;;;142.02;49.85;;;7.10;99.90;;;;;;5052736;28;20106;-75
2021/12/31 04:17:51;;;;;;;176.15;47.92;;;7.10;99.90;;;;;;5052565;28;20017;-75
2021/12/31 04:20:31;;;;;;;224.23;53.08;;;7.10;99.90;;;;;;5052562;28;20385;-74
2021/12/31 04:22:58;;;;;;;193.25;50.00;;;7.10;99.90;;;;;;5052839;28;20110;-75
2021/12/31 04:25:24;;;;;;;272.58;52.78;;;7.10;99.90;;;;;;5052729;28;20028;-74
2021/12/31 04:27:51;;;;;;;239.20;50.30;;;7.00;99.90;;;;;;5052478;28;20029;-75
2021/12/31 04:30:17;;;;;;;166.25;47.60;;;7.00;99.90;;;;;;5052233;28;20025;-75
2021/12/31 04:32:43;;;;;;;111.30;49.25;;;6.90;99.90;;;;;;5051341;28;20028;-75
2021/12/31 04:35:13;;;;;;;192.85;51.80;;;6.90;99.90;;;;;;5051187;28;20105;-75
2021/12/31 04:37:41;;;;;;;424.58;61.22;;;7.00;99.90;;;;;;5051194;28;20029;-75
2021/12/31 04:40:09;;;;;;;155.80;49.40;;;6.90;99.90;;;;;;5052309;28;20041;-75
2021/12/31 04:42:34;;;;;;;206.68;49.42;;;6.90;99.90;;;;;;5052122;28;20044;-74
2021/12/31 04:45:01;;;;;;;160.40;50.35;;;6.90;99.90;;;;;;5051906;28;20097;-74
2021/12/31 04:47:26;;;;;;;110.65;45.97;;;6.90;99.90;;;;;;5052444;28;20112;-75
2021/12/31 04:49:52;;;;;;;169.15;48.13;;;6.90;99.90;;;;;;5051404;28;20167;-75
2021/12/31 04:52:17;;;;;;;296.23;48.30;;;6.90;99.90;;;;;;5052735;28;20044;-75
2021/12/31 04:54:43;;;;;;;329.58;47.30;;;6.90;99.90;;;;;;5052380;28;20033;-75
2021/12/31 04:57:09;;;;;;;241.85;48.80;;;6.80;99.90;;;;;;5052468;28;20024;-74
2021/12/31 04:59:34;;;;;;;309.67;48.80;;;6.80;99.90;;;;;;5052678;28;20116;-74
2021/12/31 05:02:00;;;;;;;221.98;46.13;;;6.70;99.90;;;;;;5052669;28;20033;-75
2021/12/31 05:04:26;;;;;;;162.35;43.38;;;6.60;99.90;;;;;;5052063;28;20087;-75
2021/12/31 05:06:51;;;;;;;242.60;45.20;;;6.60;99.90;;;;;;5052063;28;20156;-74
2021/12/31 05:09:17;;;;;;;304.10;49.00;;;6.50;99.90;;;;;;5051740;28;20021;-75
2021/12/31 05:11:44;;;;;;;213.38;46.40;;;6.40;99.90;;;;;;5051971;28;20436;-75
2021/12/31 05:14:10;;;;;;;449.80;52.47;;;6.40;99.90;;;;;;5052178;28;20052;-74
2021/12/31 05:16:35;;;;;;;317.33;48.30;;;6.40;99.90;;;;;;5055608;28;20048;-74
2021/12/31 05:19:05;;;;;;;352.55;51.97;;;6.40;99.90;;;;;;5072362;28;20059;-75
2021/12/31 05:21:31;;;;;;;311.52;51.63;;;6.40;99.90;;;;;;5072231;28;20028;-75
2021/12/31 05:23:58;;;;;;;186.90;48.13;;;6.40;99.90;;;;;;5071977;28;20056;-74
2021/12/31 05:26:24;;;;;;;259.67;49.67;;;6.50;99.90;;;;;;5071925;28;20024;-74
2021/12/31 05:28:50;;;;;;;253.38;52.83;;;6.50;99.90;;;;;;5071839;28;20534;-75
2021/12/31 05:31:16;;;;;;;164.23;48.65;;;6.50;99.90;;;;;;5075450;28;20020;-74
2021/12/31 05:33:42;;;;;;;161.57;50.15;;;6.60;99.90;;;;;;5075729;28;20020;-74
2021/12/31 05:36:08;;;;;;;227.75;50.75;;;6.60;99.90;;;;;;5080166;28;20056;-74
2021/12/31 05:38:33;;;;;;;325.83;52.53;;;6.60;99.90;;;;;;5084247;28;20091;-73
2021/12/31 05:40:59;;;;;;;255.32;51.28;;;6.70;99.90;;;;;;5084758;28;20036;-73
2021/12/31 05:43:25;;;;;;;129.27;49.88;;;6.70;99.90;;;;;;5083572;28;20051;-74
2021/12/31 05:45:51;;;;;;;262.02;49.95;;;6.70;99.90;;;;;;5083434;28;20109;-73
2021/12/31 05:48:16;;;;;;;241.23;50.20;;;6.70;99.90;;;;;;5085365;28;20029;-74
2021/12/31 05:50:42;;;;;;;125.85;47.42;;;6.80;99.90;;;;;;5078030;28;20025;-73
2021/12/31 05:53:08;;;;;;;112.00;48.83;;;6.80;99.90;;;;;;5063020;28;20021;-75
2021/12/31 05:55:33;;;;;;;172.27;50.78;;;6.80;99.90;;;;;;5061680;28;20485;-75
2021/12/31 05:58:01;;;;;;;121.57;48.17;;;6.80;99.90;;;;;;5061018;28;20013;-74
2021/12/31 06:00:27;;;;;;;145.70;49.17;;;6.90;99.90;;;;;;5062403;28;20021;-75
2021/12/31 06:02:55;;;;;;;287.67;51.65;;;6.90;99.90;;;;;;5060695;28;20052;-74
2021/12/31 06:05:22;;;;;;;164.70;50.47;;;6.90;99.90;;;;;;5061710;28;20067;-74
2021/12/31 06:07:48;;;;;;;173.13;47.28;;;6.90;99.90;;;;;;5059304;28;20025;-74
2021/12/31 06:10:13;;;;;;;148.70;49.00;;;6.90;99.90;;;;;;5055924;28;20079;-73
2021/12/31 06:12:41;;;;;;;159.70;50.78;;;7.00;99.90;;;;;;5055124;28;20024;-74
2021/12/31 06:15:09;;;;;;;409.98;57.78;;;7.00;99.90;;;;;;5055428;28;20083;-73
2021/12/31 06:17:35;;;;;;;257.42;52.10;;;6.90;99.90;;;;;;5055263;28;20032;-73
2021/12/31 06:20:01;;;;;;;175.68;47.22;;;6.90;99.90;;;;;;5055373;28;20021;-74
2021/12/31 06:22:27;;;;;;;164.93;46.25;;;6.90;99.90;;;;;;5055495;28;20021;-74
2021/12/31 06:24:52;;;;;;;171.15;46.65;;;6.80;99.90;;;;;;5055361;28;20473;-74
2021/12/31 06:27:18;;;;;;;194.73;48.28;;;6.80;99.90;;;;;;5055610;28;20025;-74
2021/12/31 06:29:44;;;;;;;173.68;44.83;;;6.80;99.90;;;;;;5068488;28;20036;-73
2021/12/31 06:32:10;;;;;;;134.20;44.00;;;6.80;99.90;;;;;;5075258;28;20028;-75
2021/12/31 06:34:36;;;;;;;235.02;47.72;;;6.80;99.90;;;;;;5075007;28;20065;-75
2021/12/31 06:37:01;;;;;;;433.83;49.72;;;6.70;99.90;;;;;;5075359;28;20102;-74
2021/12/31 06:39:28;;;;;;;440.17;50.42;;;6.60;99.90;;;;;;5075316;28;20095;-73
2021/12/31 06:41:54;;;;;;;353.30;47.13;;;6.50;99.90;;;;;;5074837;28;20021;-74
2021/12/31 06:44:20;;;;;;;353.63;47.88;;;6.30;99.90;;;;;;5074495;28;20131;-74
2021/12/31 06:46:46;;;;;;;217.73;44.33;;;6.30;99.90;;;;;;5074439;28;20142;-74
2021/12/31 06:49:11;;;;;;;173.27;44.25;;;6.20;99.90;;;;;;5074546;28;20043;-74
2021/12/31 06:51:37;;;;;;;335.27;44.58;;;6.20;99.90;;;;;;5074686;28;20082;-73
2021/12/31 06:54:03;;;;;;;192.23;43.30;;;6.20;99.90;;;;;;5074481;28;20020;-74
2021/12/31 06:56:29;;;;;;;156.82;44.83;;;6.10;99.90;;;;;;5074776;28;20104;-74
2021/12/31 06:58:54;;;;;;;293.95;43.97;;;6.10;99.90;;;;;;5074280;28;20020;-75
2021/12/31 07:01:21;;;;;;;231.73;43.60;;;6.10;99.90;;;;;;5074288;28;20435;-74
2021/12/31 07:03:47;;;;;;;285.27;42.40;;;6.10;99.90;;;;;;5074031;28;20032;-73
2021/12/31 07:06:12;;;;;;;209.65;43.20;;;6.10;99.90;;;;;;5056916;28;20047;-73
2021/12/31 07:08:39;;;;;;;254.63;43.20;;;6.10;99.90;;;;;;5054228;28;20028;-74
2021/12/31 07:11:05;;;;;;;223.55;44.97;;;6.10;99.90;;;;;;5053867;28;20492;-73
2021/12/31 07:13:30;;;;;;;416.77;52.85;;;6.10;99.90;;;;;;5054049;28;20029;-74
2021/12/31 07:15:56;;;;;;;298.58;45.78;;;6.20;99.90;;;;;;5053925;28;20024;-74
2021/12/31 07:18:23;;;;;;;195.90;42.83;;;6.10;99.90;;;;;;5053817;28;20033;-75
2021/12/31 07:20:49;;;;;;;186.57;43.67;;;6.10;99.90;;;;;;5053446;28;20021;-74
2021/12/31 07:23:18;;;;;;;234.82;44.40;;;6.10;99.90;;;;;;5053642;28;20024;-74
2021/12/31 07:25:44;;;;;;;124.40;42.05;;;6.20;99.90;;;;;;5053774;28;20416;-75
2021/12/31 07:28:11;;;;;;;122.22;41.08;;;6.20;99.90;;;;;;5053923;28;20024;-74
2021/12/31 07:30:37;;;;;;;231.75;42.67;;;6.20;99.90;;;;;;5053892;28;20021;-75
2021/12/31 07:33:03;;;;;;;136.15;41.30;;;6.20;99.90;;;;;;5053470;28;20036;-75
2021/12/31 07:35:33;;;;;;;195.15;41.97;;;6.20;99.90;;;;;;5053018;28;20025;-74
2021/12/31 07:38:00;;;;;;;153.02;41.58;;;6.20;99.90;;;;;;5053281;28;20029;-74
2021/12/31 07:41:00;;;;;;;140.35;43.05;;;6.10;99.90;;;;;;5053489;28;20029;-74
2021/12/31 07:43:20;;;;;;;147.27;41.25;;;6.10;99.90;;;;;;5051814;28;20509;-74
2021/12/31 07:45:46;;;;;;;147.55;41.75;;;6.20;99.90;;;;;;5052861;28;20025;-74
2021/12/31 07:48:12;;;;;;;220.95;40.28;;;6.20;99.90;;;;;;5053274;28;20064;-74
2021/12/31 07:50:37;;;;;;;486.75;48.20;;;6.20;99.90;;;;;;5053342;28;20032;-74
2021/12/31 07:53:04;;;;;;;165.93;42.22;;;6.10;99.90;;;;;;5057145;28;20028;-74
2021/12/31 07:55:30;;;;;;;190.90;45.17;;;6.10;99.90;;;;;;5061295;28;20051;-73
2021/12/31 07:57:56;;;;;;;279.33;43.53;;;6.10;99.90;;;;;;5059541;28;20028;-73
2021/12/31 08:00:22;;;;;;;188.23;42.63;;;6.20;99.90;;;;;;5058017;28;20017;-73
2021/12/31 08:02:48;;;;;;;211.98;46.38;;;6.20;99.90;;;;;;5057156;28;20021;-74
2021/12/31 08:05:14;;;;;;;158.25;42.90;;;6.30;99.90;;;;;;5061224;28;20029;-73
2021/12/31 08:07:40;;;;;;;181.52;45.15;;;6.40;99.90;;;;;;5059110;28;20024;-74
2021/12/31 08:10:07;;;;;;;128.30;43.92;;;6.40;99.90;;;;;;5058047;28;20025;-73
2021/12/31 08:12:35;;;;;;;154.75;46.15;;;6.40;99.90;;;;;;5052876;28;20060;-74
2021/12/31 08:15:01;;;;;;;119.53;46.45;;;6.50;99.90;;;;;;5052252;28;20078;-74
2021/12/31 08:17:27;;;;;;;121.03;43.33;;;6.60;99.90;;;;;;5052520;28;20032;-74
2021/12/31 08:19:53;;;;;;;103.40;43.47;;;6.70;99.90;;;;;;5052732;28;20032;-72
2021/12/31 08:22:18;;;;;;;126.75;42.30;;;6.80;99.90;;;;;;5052526;28;20043;-75
2021/12/31 08:24:44;;;;;;;145.52;44.33;;;6.90;99.90;;;;;;5051358;28;20051;-75
2021/12/31 08:27:09;;;;;;;102.07;41.58;;;7.00;99.90;;;;;;5052716;28;20031;-75
2021/12/31 08:29:35;;;;;;;116.47;45.55;;;7.10;99.90;;;;;;5069345;28;20024;-74
2021/12/31 08:32:01;;;;;;;103.25;43.53;;;7.20;99.90;;;;;;5072536;28;20504;-75
2021/12/31 08:34:26;;;;;;;104.07;43.50;;;7.30;99.90;;;;;;5072856;28;20024;-75
2021/12/31 08:36:52;;;;;;;116.20;48.92;;;7.30;99.90;;;;;;5072773;28;20036;-75
2021/12/31 08:39:18;;;;;;;112.78;44.63;;;7.40;99.90;;;;;;5072703;28;20051;-72
2021/12/31 08:41:43;;;;;;;102.70;45.80;;;7.40;99.90;;;;;;5072680;28;20028;-76
2021/12/31 08:44:09;;;;;;;103.75;43.15;;;7.40;99.90;;;;;;5071693;28;20621;-75
2021/12/31 08:46:35;;;;;;;147.10;46.17;;;7.50;99.90;;;;;;5070659;28;20453;-76
2021/12/31 08:49:02;;;;;;;114.55;42.30;;;7.50;99.90;;;;;;5057295;28;20041;-76
2021/12/31 08:51:28;;;;;;;169.80;44.85;;;7.40;99.90;;;;;;5050676;28;20052;-75
2021/12/31 08:53:54;;;;;;;105.57;43.25;;;7.30;99.90;;;;;;5052002;28;20424;-75
2021/12/31 08:56:20;;;;;;;193.93;40.22;;;7.30;99.90;;;;;;5067478;28;20465;-74
2021/12/31 08:58:47;;;;;;;160.45;44.30;;;7.20;99.90;;;;;;5056437;28;20032;-75
2021/12/31 09:01:13;;;;;;;115.97;43.03;;;7.20;99.90;;;;;;5062868;28;20099;-75
2021/12/31 09:03:38;;;;;;;123.97;43.67;;;7.20;99.90;;;;;;5051995;28;20033;-74
2021/12/31 09:06:05;;;;;;;106.53;44.05;;;7.20;99.90;;;;;;5055625;28;20370;-75
2021/12/31 09:08:30;;;;;;;125.40;45.42;;;7.20;99.90;;;;;;5058735;28;20389;-74
2021/12/31 09:10:57;;;;;;;137.50;44.42;;;7.30;99.90;;;;;;5055756;28;20035;-72
2021/12/31 09:13:23;;;;;;;108.93;41.33;;;7.40;99.90;;;;;;5057749;28;20095;-75
2021/12/31 09:15:48;;;;;;;134.32;48.50;;;7.50;99.90;;;;;;5061659;28;20035;-73
2021/12/31 09:18:14;;;;;;;103.15;42.85;;;7.60;99.90;;;;;;5055817;28;20473;-74
2021/12/31 09:20:40;;;;;;;156.65;73.68;;;7.60;99.90;;;;;;5056086;28;20358;-76
2021/12/31 09:23:07;;;;;;;155.98;69.20;;;7.70;99.90;;;;;;5056027;28;20064;-75
2021/12/31 09:25:32;;;;;;;127.00;53.63;;;7.70;99.90;;;;;;5057218;28;20028;-75
2021/12/31 09:27:58;;;;;;;116.72;49.17;;;7.80;99.90;;;;;;5061202;28;20028;-75
2021/12/31 09:30:24;;;;;;;118.95;45.80;;;7.90;99.90;;;;;;5061392;28;20032;-74
2021/12/31 09:32:50;;;;;;;119.05;48.58;;;8.10;99.90;;;;;;5059044;28;20013;-75
2021/12/31 09:35:16;;;;;;;106.25;47.35;;;8.20;99.90;;;;;;5056212;28;20039;-74
2021/12/31 09:37:41;;;;;;;116.32;45.30;;;8.30;99.90;;;;;;5054646;28;20040;-76
2021/12/31 09:40:08;;;;;;;103.50;45.35;;;8.40;99.90;;;;;;5054398;28;20078;-75
2021/12/31 09:42:36;;;;;;;110.78;48.03;;;8.50;99.90;;;;;;5054852;28;20025;-73
2021/12/31 09:45:02;;;;;;;123.68;50.60;;;8.60;99.90;;;;;;5061554;28;20024;-75
2021/12/31 09:47:28;;;;;;;112.30;49.95;;;8.70;99.90;;;;;;5066374;28;20024;-75
2021/12/31 09:49:53;;;;;;;112.22;50.05;;;8.90;99.90;;;;;;5055392;28;20040;-75
2021/12/31 09:52:19;;;;;;;120.82;52.25;;;9.00;99.90;;;;;;5071165;28;20025;-76
2021/12/31 09:54:47;;;;;;;116.97;52.40;;;9.20;99.90;;;;;;5054934;28;20049;-76
2021/12/31 09:57:20;;;;;;;122.28;54.55;;;9.30;99.90;;;;;;5057963;28;20541;-75
2021/12/31 09:59:47;;;;;;;120.57;55.03;;;9.40;99.90;;;;;;5053994;28;20025;-76
2021/12/31 10:02:13;;;;;;;115.93;50.85;;;9.40;99.90;;;;;;5055372;28;20021;-73
2021/12/31 10:05:00;;;;;;;114.28;51.22;;;9.50;99.90;;;;;;5054418;28;20033;-76
2021/12/31 10:07:28;;;;;;;111.90;53.10;;;9.60;99.90;;;;;;5055345;28;20025;-77
2021/12/31 10:10:06;;;;;;;121.43;53.35;;;9.60;99.90;;;;;;5054911;28;20025;-74
2021/12/31 10:12:53;;;;;;;109.57;51.40;;;9.60;99.90;;;;;;5054656;28;20110;-76
2021/12/31 10:15:22;;;;;;;121.85;51.30;;;9.60;99.90;;;;;;5054823;28;20029;-75
2021/12/31 10:17:48;;;;;;;114.25;52.25;;;9.60;99.90;;;;;;5055434;28;20033;-76
2021/12/31 10:20:15;;;;;;;117.60;50.33;;;9.50;99.90;;;;;;5054856;28;20021;-74
2021/12/31 10:22:41;;;;;;;110.70;49.55;;;9.50;99.90;;;;;;5054866;28;20033;-75
2021/12/31 10:25:24;;;;;;;102.22;48.28;;;9.40;99.90;;;;;;5054370;28;20082;-81
2021/12/31 10:27:52;;;;;;;107.15;49.70;;;9.40;99.90;;;;;;5054785;28;20108;-77
2021/12/31 10:30:26;;;;;;;107.90;47.88;;;9.40;99.90;;;;;;5055062;28;20483;-76
2021/12/31 10:32:52;;;;;;;94.68;46.58;;;9.40;99.90;;;;;;5054956;28;20496;-76
2021/12/31 13:08:35;;;;;;;107.88;56.42;;;9.80;99.90;;;;;;4915637;29;20066;-80
2021/12/31 13:22:02;;;;;;;123.32;61.90;;;9.90;99.90;;;;;;4878560;29;20043;-80
2021/12/31 13:28:18;;;;;;;111.70;58.55;;;9.90;99.90;;;;;;4777948;29;20039;-79
2021/12/31 13:34:47;;;;;;;128.25;64.30;;;9.80;99.90;;;;;;4838989;29;20525;-79
2021/12/31 13:37:43;;;;;;;125.47;65.80;;;9.70;99.90;;;;;;4827766;29;20046;-79
2021/12/31 13:50:43;;;;;;;137.60;66.05;;;9.40;99.90;;;;;;4761513;30;20179;-78
2021/12/31 13:53:38;;;;;;;;;;;;;;;;;;;;;
2021/12/31 13:56:38;;;;;;;133.27;66.15;;;9.30;99.90;;;;;;4781892;29;20023;-79
2021/12/31 14:00:04;;;;;;;142.25;69.90;;;9.30;99.90;;;;;;4786751;30;20043;-78
2021/12/31 14:06:24;;;;;;;;;;;9.30;99.90;;;;;;4768943;30;20051;-79
2021/12/31 14:09:22;;;;;;;119.60;60.00;;;9.30;99.90;;;;;;4785350;30;19910;-79
2021/12/31 14:29:46;;;;;;;138.20;64.07;;;8.90;99.90;;;;;;4822944;29;20148;-79
2021/12/31 14:38:47;;;;;;;146.32;65.63;;;8.80;99.90;;;;;;4844543;29;20041;-78
2021/12/31 15:03:25;;;;;;;162.57;67.35;;;8.50;99.90;;;;;;4818814;29;20081;-78
2021/12/31 15:06:23;;;;;;;159.65;63.92;;;8.50;99.90;;;;;;4866320;29;20048;-78
2021/12/31 15:12:56;;;;;;;143.43;60.40;;;8.40;99.90;;;;;;4860840;29;20075;-78
2021/12/31 15:16:15;;;;;;;142.60;58.60;;;8.40;99.90;;;;;;4860147;29;20262;-79
2021/12/31 15:25:29;;;;;;;160.63;65.13;;;8.30;99.90;;;;;;4826981;29;20044;-79
2021/12/31 15:27:55;;;;;;;163.02;63.72;;;8.30;99.90;;;;;;4878340;29;20036;-78
2021/12/31 15:30:23;;;;;;;200.63;63.30;;;8.30;99.90;;;;;;4862387;29;20044;-79
2021/12/31 15:33:43;;;;;;;153.48;59.88;;;8.30;99.90;;;;;;4874230;29;20029;-78
2021/12/31 15:43:28;;;;;;;260.95;66.80;;;8.10;99.90;;;;;;4803377;29;20755;-78
2021/12/31 15:46:12;;;;;;;181.43;68.70;;;8.00;99.90;;;;;;4789525;29;20095;-79
2021/12/31 15:49:12;;;;;;;;;;;;;;;;;;;;;
2021/12/31 15:52:20;;;;;;;217.85;75.95;;;7.90;99.90;;;;;;4808269;29;20047;-78
2021/12/31 15:54:51;;;;;;;213.65;78.68;;;7.90;99.90;;;;;;4824378;29;20033;-78
2021/12/31 15:57:20;;;;;;;248.85;94.63;;;7.90;99.90;;;;;;4872690;29;20041;-78
2021/12/31 16:03:47;;;;;;;213.70;84.07;;;7.90;99.90;;;;;;4873917;29;20096;-77
2021/12/31 16:06:27;;;;;;;225.30;85.55;;;8.00;99.90;;;;;;4893477;29;20064;-78
2021/12/31 16:08:58;;;;;;;235.48;90.18;;;8.00;99.90;;;;;;4888316;29;20033;-78
2021/12/31 16:18:32;;;;;;;257.25;90.30;;;8.00;99.90;;;;;;4804621;29;20230;-77
2021/12/31 16:28:07;;;;;;;223.18;83.97;;;8.10;99.90;;;;;;4764941;30;20038;-78
2021/12/31 16:31:30;;;;;;;230.55;84.18;;;8.10;99.90;;;;;;4800812;29;20386;-77
2021/12/31 16:35:16;;;;;;;235.25;87.35;;;8.10;99.90;;;;;;4866505;29;20056;-77
2021/12/31 16:45:53;;;;;;;213.40;78.38;;;8.10;99.90;;;;;;4789942;29;20051;-78
2021/12/31 16:48:50;;;;;;;220.43;79.15;;;8.10;99.90;;;;;;4827877;29;20186;-77
2021/12/31 16:51:27;;;;;;;178.73;68.53;;;8.10;99.90;;;;;;4812877;29;20074;-78
2021/12/31 16:55:14;;;;;;;;;;;;;;;;;;;;;
2021/12/31 16:57:12;;;;;;;186.02;70.38;;;8.10;99.90;;;;;;4849672;29;20043;-78
2021/12/31 17:00:04;;;;;;;186.18;71.10;;;8.10;99.90;;;;;;4872638;29;20040;-78
2021/12/31 17:03:10;;;;;;;;;;;;;;;;;;;;;
2021/12/31 17:05:40;;;;;;;192.90;69.80;;;8.10;99.90;;;;;;4874890;29;20037;-79
2021/12/31 17:11:35;;;;;;;201.00;67.15;;;8.10;99.90;;;;;;4870040;29;20041;-79
2021/12/31 17:14:39;;;;;;;;;;;;;;;;;;;;;
2021/12/31 17:17:22;;;;;;;178.77;66.53;;;8.00;99.90;;;;;;4860877;29;19918;-81
2021/12/31 17:20:41;;;;;;;197.65;70.90;;;8.00;99.90;;;;;;4875676;29;20181;-79
2021/12/31 17:27:40;;;;;;;202.27;72.63;;;8.00;99.90;;;;;;4732925;30;20145;-79
2021/12/31 17:33:44;;;;;;;200.52;73.30;;;8.00;99.90;;;;;;4699936;30;20044;-79
2021/12/31 17:36:48;;;;;;;208.55;75.32;;;8.00;99.90;;;;;;4719748;30;20043;-79
2021/12/31 17:40:06;;;;;;;302.42;78.68;;;8.10;99.90;;;;;;4819763;29;20038;-78
2021/12/31 17:42:32;;;;;;;230.73;78.43;;;8.10;99.90;;;;;;4845244;29;20402;-80